Willisville, Indiana
Current Conditions -  °F | °C
As of 8:55 AM on Sunday 23 Nov 2014 (Local Time) from KDCY Reporting Station
Drizzle Drizzle  
Wind Chill: 53°   Ceiling: 3200
Heat Index: 53°   Visibility: 5mi
Dew Point: 46°   Wind: 13mph
Humidity: 79%   Direction: 150°SSE
Pressure: 29.84"   Gusts: 22mph
Location:  38.4723°N, 87.3105°W
Report Text: KDCY 231455Z AUTO 15011G19KT 5SM +DZ SCT016 SCT021 OVC032 12/08 A2984 RMK AO2 T01160080
Loading
Personal Weather Stations






























Interactive Weather Map New forecast layout! Learn more

10-Day Weather Forecast

Advertisements
Track Severe Weather on mobile